Crew | Aerofun Virtual



 METAR AND TAF INFORMATION
METAR FOR EFLP
ADDS - METARS form results

(1532 UTC 24 May 2019)
Data provider http://aviationweather.gov/metar/data/
 
METAR text: EFLP 241520Z AUTO 08006KT 040V130 9999 OVC045 08/04 Q1011
Conditions at: EFLP (LAPPEENRANTA , FI) observed 1520 UTC 24 May 2019
Temperature: 8.0°C (46°F)
Dewpoint: 4.0°C (39°F) [RH = 76%]
Pressure (altimeter): 29.85 inches Hg (1011.0 mb)
Winds: from the E (80 degrees) at 7 MPH (6 knots; 3.1 m/s)
Visibility: 6 or more miles (10+ km)
Ceiling: 4500 feet AGL
Clouds: overcast cloud deck at 4500 feet AGL
Weather: no significant weather observed at this time

METAR text: EFLP 241450Z AUTO 08006KT 040V110 CAVOK 08/04 Q1011
Conditions at: EFLP (LAPPEENRANTA , FI) observed 1450 UTC 24 May 2019
Temperature: 8.0°C (46°F)
Dewpoint: 4.0°C (39°F) [RH = 76%]
Pressure (altimeter): 29.85 inches Hg (1011.0 mb)
Winds: from the E (80 degrees) at 7 MPH (6 knots; 3.1 m/s)
Visibility: 6 or more miles (10+ km)
Ceiling: ceiling and visibility are OK
Clouds: unknown
Weather: no significant weather observed at this time

Forecast for: EFLP (LAPPEENRANTA , FI)
Text: TAF EFLP 240535Z 2406/2409 10006KT 9999 -RA FEW045
Forecast period: 0600 to 0900 UTC 24 May 2019
Forecast type: FROM: standard forecast or significant change
Winds: from the E (100 degrees) at 7 MPH (6 knots; 3.1 m/s)
Visibility: 6 or more miles 10+ km)
Ceiling: at least 12,000 feet AGL
Clouds: few clouds at 4500 feet AGL
Weather: -RA  (light rain)
Text: TEMPO 2406/2407 FEW060CB
Forecast period: 0600 to 0700 UTC 24 May 2019
Forecast type: TEMPORARY: The following changes expected for less than half the time period
Visibility: missing
Ceiling: at least 12,000 feet AGL
Clouds: few clouds at 6000 feet AGL
Weather: no significant weather forecast for this period

 AIRPORT MAP

 RUNWAY INFORMATION
Runway 06 Runway length 8202 ft Runway width 197 ft
Runway elevation 348 ft Runway displaced threshold 0 ft Runway heading 67
Runway 24 Runway length 8202 ft Runway width 197 ft
Runway elevation 349 ft Runway displaced threshold 0 ft Runway heading 247

 AIRPORT FREQUENCIES
Type ATIS Name ATIS Frequency 112.5 MHZ
Type TWR Name TWR Frequency 119.7 MHZ

 AIRPORT NEAR NAVIGATION AIDS
Type NDB Name Ranta Frequency 392 KHZ
Type VOR-DME Name Vilmas Frequency 112500 KHZ